createdAt,value
2023-03-01T17:02:16.101Z,32.75
2023-03-01T17:03:50.157Z,30.20
2023-03-01T17:05:25.100Z,29.80
2023-03-01T17:07:00.012Z,30.00
2023-03-01T17:08:58.325Z,31.40
2023-03-01T17:10:30.810Z,31.00
2023-03-01T17:12:02.907Z,32.00
2023-03-01T17:13:36.341Z,33.20
2023-03-01T17:15:08.739Z,32.00
2023-03-01T17:16:41.030Z,28.00
2023-03-01T17:18:13.024Z,26.20
2023-03-01T17:19:45.282Z,32.20
2023-03-01T17:21:17.768Z,31.80
2023-03-01T17:22:49.745Z,30.00
2023-03-01T17:24:21.679Z,25.80
2023-03-01T17:25:55.870Z,25.60
2023-03-01T17:27:28.170Z,31.40
2023-03-01T17:29:00.189Z,20.00
2023-03-01T17:30:32.179Z,30.60
2023-03-01T17:32:04.541Z,29.40
2023-03-01T17:33:36.741Z,29.80
2023-03-01T17:35:09.250Z,24.20
2023-03-01T17:36:44.338Z,25.20
2023-03-01T17:38:16.431Z,27.80
2023-03-01T17:39:48.363Z,24.00
2023-03-01T17:41:22.037Z,29.60
2023-03-01T17:42:54.023Z,29.00
2023-03-01T17:44:29.190Z,25.80
2023-03-01T17:46:01.174Z,29.20
2023-03-01T17:47:33.136Z,28.20
2023-03-01T17:49:05.262Z,27.20
2023-03-01T17:50:38.838Z,21.20
2023-03-01T17:52:10.909Z,27.80
2023-03-01T17:53:43.172Z,26.40
2023-03-01T17:55:15.076Z,28.80
2023-03-01T17:56:47.156Z,21.60
2023-03-01T17:58:23.154Z,30.60
2023-03-01T17:59:55.341Z,24.00
2023-03-01T18:01:28.552Z,29.00
2023-03-01T18:03:02.866Z,30.00
2023-03-01T18:04:36.748Z,25.00
2023-03-01T18:06:17.594Z,33.40
2023-03-01T18:07:51.613Z,30.40
2023-03-01T18:09:23.756Z,42.80
2023-03-01T18:10:59.936Z,47.50
2023-03-01T18:12:32.601Z,64.25
2023-03-01T18:14:04.785Z,70.75
2023-03-01T18:15:37.261Z,81.25
2023-03-01T18:17:12.282Z,95.00
2023-03-01T18:18:47.055Z,98.40
2023-03-01T18:20:19.697Z,100.40
2023-03-01T18:21:52.140Z,115.75
2023-03-01T18:23:24.419Z,114.75
2023-03-01T18:25:01.142Z,126.75
2023-03-01T18:26:33.741Z,126.50
2023-03-01T18:28:06.100Z,132.50
2023-03-01T18:29:38.978Z,140.25
2023-03-01T18:31:11.681Z,132.50
2023-03-01T18:32:45.122Z,131.75
2023-03-01T18:34:17.057Z,143.75
2023-03-01T18:35:50.287Z,163.50
2023-03-01T18:37:22.344Z,179.50
2023-03-01T18:38:56.464Z,180.75
2023-03-01T18:40:30.064Z,181.67
2023-03-01T18:42:02.410Z,187.00
2023-03-01T18:43:34.323Z,188.67
2023-03-01T18:45:06.648Z,203.67
2023-03-01T18:46:40.134Z,182.67
2023-03-01T18:48:13.057Z,184.33
2023-03-01T18:49:44.966Z,193.67
2023-03-01T18:51:21.127Z,182.33
2023-03-01T18:52:53.307Z,185.00
2023-03-01T18:54:25.427Z,184.00
2023-03-01T18:56:02.881Z,179.50
2023-03-01T18:57:39.532Z,178.50
2023-03-01T18:59:14.314Z,175.25
2023-03-01T19:00:46.339Z,175.75
2023-03-01T19:02:18.906Z,170.50
2023-03-01T19:03:51.310Z,162.00
2023-03-01T19:05:23.795Z,172.75
2023-03-01T19:06:56.093Z,152.00
2023-03-01T19:08:29.545Z,165.50
2023-03-01T19:10:01.366Z,154.00
2023-03-01T19:11:35.866Z,145.25
2023-03-01T19:13:07.909Z,144.50
2023-03-01T19:14:39.947Z,144.75
2023-03-01T19:16:14.126Z,138.25
2023-03-01T19:17:46.216Z,136.25
2023-03-01T19:19:18.645Z,131.25
2023-03-01T19:21:03.321Z,148.50
2023-03-01T19:22:35.568Z,132.00
2023-03-01T19:24:07.863Z,111.50
2023-03-01T19:25:40.092Z,118.00
2023-03-01T19:27:11.999Z,114.25
2023-03-01T19:28:44.379Z,134.50
2023-03-01T19:30:16.652Z,143.25
2023-03-01T19:31:48.760Z,143.00
2023-03-01T19:33:20.765Z,137.50
2023-03-01T19:34:52.748Z,146.75
2023-03-01T19:36:33.111Z,158.25
2023-03-01T19:38:05.153Z,147.75
2023-03-01T19:39:37.446Z,164.00
2023-03-01T19:41:12.768Z,149.00
2023-03-01T19:42:44.893Z,160.00
2023-03-01T19:44:17.043Z,156.00
2023-03-01T19:45:55.015Z,157.25
2023-03-01T19:47:26.979Z,160.75
2023-03-01T19:49:00.641Z,161.25
2023-03-01T19:50:32.628Z,160.50
2023-03-01T19:52:05.280Z,161.50
2023-03-01T19:53:37.761Z,168.25
2023-03-01T19:55:10.417Z,174.50
2023-03-01T19:56:42.390Z,166.00
2023-03-01T19:58:14.328Z,182.67
2023-03-01T19:59:46.563Z,185.00
2023-03-01T20:01:20.666Z,183.67
2023-03-01T20:02:52.637Z,198.33
2023-03-01T20:04:24.654Z,205.33
2023-03-01T20:05:59.476Z,202.67
2023-03-01T20:07:31.476Z,184.67
2023-03-01T20:09:20.424Z,198.33
2023-03-01T20:10:55.756Z,191.33
2023-03-01T20:12:27.616Z,183.67
2023-03-01T20:13:59.841Z,195.33
2023-03-01T20:15:31.885Z,197.00
2023-03-01T20:17:04.412Z,195.00
2023-03-01T20:18:37.260Z,193.00
2023-03-01T20:20:38.308Z,207.00
2023-03-01T20:22:10.315Z,208.00
2023-03-01T20:23:42.743Z,212.33
2023-03-01T20:25:16.818Z,221.00
2023-03-01T20:26:48.851Z,219.67
2023-03-01T20:28:20.707Z,214.67
2023-03-01T20:29:52.689Z,226.00
2023-03-01T20:31:30.228Z,224.00
2023-03-01T20:33:02.352Z,216.00
2023-03-01T20:34:34.508Z,223.00
2023-03-01T20:36:07.154Z,207.33
2023-03-01T20:37:39.087Z,215.00
2023-03-01T20:39:13.790Z,210.00
2023-03-01T20:40:45.636Z,188.00
2023-03-01T20:42:17.651Z,195.33
2023-03-01T20:43:55.015Z,192.33
2023-03-01T20:45:28.649Z,191.00
2023-03-01T20:47:00.784Z,183.00
2023-03-01T20:48:33.049Z,181.75
2023-03-01T20:50:05.525Z,171.00
2023-03-01T20:51:37.605Z,177.75
2023-03-01T20:53:09.632Z,169.00
2023-03-01T20:54:41.694Z,170.75
2023-03-01T20:56:14.704Z,148.75
2023-03-01T20:57:46.747Z,161.25
2023-03-01T20:59:18.732Z,156.00
2023-03-01T21:00:52.309Z,144.00
2023-03-01T21:02:24.330Z,147.00
2023-03-01T21:03:56.430Z,151.50
2023-03-01T21:05:28.495Z,130.50
2023-03-01T21:07:00.575Z,136.00
2023-03-01T21:08:33.331Z,133.50
2023-03-01T21:10:05.769Z,109.25
2023-03-01T21:11:37.906Z,131.50
2023-03-01T21:13:10.637Z,131.25
2023-03-01T21:14:42.557Z,151.25
2023-03-01T21:16:15.111Z,147.00
2023-03-01T21:17:48.171Z,150.25
2023-03-01T21:19:25.598Z,155.75
2023-03-01T21:21:08.594Z,158.75
2023-03-01T21:22:40.954Z,162.25
2023-03-01T21:24:12.814Z,157.00
2023-03-01T21:25:45.531Z,159.25
2023-03-01T21:27:17.670Z,144.25
2023-03-01T21:28:51.541Z,146.50
2023-03-01T21:30:23.403Z,148.25
2023-03-01T21:31:55.542Z,139.00
2023-03-01T21:33:27.878Z,141.00
2023-03-01T21:35:00.025Z,139.75
2023-03-01T21:36:32.333Z,135.75
2023-03-01T21:38:04.523Z,163.75
2023-03-01T21:39:36.760Z,140.75
2023-03-01T21:41:13.642Z,143.50
2023-03-01T21:42:45.690Z,145.50
2023-03-01T21:44:17.705Z,145.25
2023-03-01T21:45:50.327Z,157.25
2023-03-01T21:47:22.281Z,165.75
2023-03-01T21:48:55.253Z,171.00
2023-03-01T21:50:27.828Z,166.00
2023-03-01T21:51:59.706Z,166.75
2023-03-01T21:53:33.695Z,176.25
2023-03-01T21:55:06.203Z,162.25
2023-03-01T21:56:41.203Z,158.50
2023-03-01T21:58:13.118Z,162.00
2023-03-01T21:59:45.055Z,163.00
2023-03-01T22:01:20.196Z,142.25
2023-03-01T22:02:52.269Z,169.50
2023-03-01T22:04:25.275Z,151.50
2023-03-01T22:05:59.848Z,151.75
2023-03-01T22:07:31.879Z,148.75
2023-03-01T22:09:18.969Z,142.25
2023-03-01T22:10:51.078Z,140.50
2023-03-01T22:12:23.294Z,119.75
2023-03-01T22:13:56.158Z,131.50
2023-03-01T22:15:28.814Z,134.75
2023-03-01T22:17:00.770Z,121.25
2023-03-01T22:18:32.879Z,120.50
2023-03-01T22:20:05.536Z,125.25
2023-03-01T22:21:41.126Z,111.75
2023-03-01T22:23:13.032Z,111.50
2023-03-01T22:24:44.912Z,107.25
2023-03-01T22:26:34.382Z,103.25
2023-03-01T22:28:06.545Z,102.50
2023-03-01T22:29:38.524Z,96.75
2023-03-01T22:31:10.481Z,105.75
2023-03-01T22:32:43.154Z,103.40
2023-03-01T22:34:17.277Z,100.75
2023-03-01T22:35:49.316Z,86.40
2023-03-01T22:37:21.304Z,98.20
2023-03-01T22:38:59.442Z,93.60
2023-03-01T22:40:31.465Z,85.40
2023-03-01T22:42:03.360Z,86.20
2023-03-01T22:43:35.628Z,81.50
2023-03-01T22:45:08.143Z,81.75
2023-03-01T22:46:40.574Z,78.25
2023-03-01T22:48:12.396Z,85.25
2023-03-01T22:49:44.404Z,77.25
2023-03-01T22:51:21.374Z,73.50
2023-03-01T22:52:53.394Z,76.00
2023-03-01T22:54:25.359Z,81.75
2023-03-01T22:55:57.285Z,62.25
2023-03-01T22:57:29.841Z,66.50
2023-03-01T22:59:03.454Z,65.75
2023-03-01T23:01:03.795Z,68.75
2023-03-01T23:02:36.563Z,69.75
2023-03-01T23:04:08.602Z,65.50
2023-03-01T23:05:40.650Z,61.50
2023-03-01T23:07:16.525Z,64.75
2023-03-01T23:08:52.247Z,66.25
2023-03-01T23:10:24.100Z,84.25
2023-03-01T23:11:56.303Z,99.80
2023-03-01T23:13:28.322Z,109.00
2023-03-01T23:15:00.267Z,121.00
2023-03-01T23:16:32.718Z,115.25
2023-03-01T23:18:04.959Z,118.00
2023-03-01T23:19:37.182Z,114.50
2023-03-01T23:21:12.744Z,116.00
2023-03-01T23:22:44.608Z,115.25
2023-03-01T23:24:17.322Z,116.50
2023-03-01T23:25:58.638Z,113.25
2023-03-01T23:27:30.814Z,304.50
2023-03-01T23:29:02.990Z,212.00
2023-03-01T23:30:35.068Z,231.67
2023-03-01T23:32:07.282Z,191.00
2023-03-01T23:33:39.448Z,180.33
